Time;durP1;ratioP1;P1;durP2;ratioP2;P2;SDS_P1;SDS_P2;PMS_P1;PMS_P2;Temp;Humidity;BMP_temperature;BMP_pressure;BME280_temperature;BME280_humidity;BME280_pressure;Samples;Min_cycle;Max_cycle;Signal;HPM_P1;HPM_P2
2023/12/13 00:01:24;;;;;;;1.30;0.80;;;22.20;62.20;;;;;;5072614;28;20781;-84
2023/12/13 00:03:52;;;;;;;1.20;0.80;;;22.20;62.20;;;;;;5072597;28;20794;-84
2023/12/13 00:06:19;;;;;;;1.30;1.07;;;22.20;62.30;;;;;;5072599;28;20431;-84
2023/12/13 00:08:46;;;;;;;3.67;1.10;;;22.20;62.20;;;;;;5072476;28;20788;-84
2023/12/13 00:11:13;;;;;;;1.30;1.00;;;22.10;62.10;;;;;;5072380;28;20432;-84
2023/12/13 00:13:40;;;;;;;1.30;0.90;;;22.10;62.10;;;;;;5072363;28;20488;-84
2023/12/13 00:16:08;;;;;;;1.37;1.07;;;22.10;62.10;;;;;;5072475;28;20437;-84
2023/12/13 00:18:35;;;;;;;1.43;1.00;;;22.10;62.20;;;;;;5072315;28;20479;-84
2023/12/13 00:21:03;;;;;;;1.20;0.90;;;22.10;62.30;;;;;;5072380;28;20770;-84
2023/12/13 00:23:30;;;;;;;1.10;0.87;;;22.10;62.20;;;;;;5072423;28;20919;-88
2023/12/13 00:25:57;;;;;;;1.20;0.80;;;22.10;62.20;;;;;;5072350;28;20927;-85
2023/12/13 00:28:23;;;;;;;1.10;0.90;;;22.10;62.30;;;;;;5072217;28;20457;-85
2023/12/13 00:30:50;;;;;;;1.37;0.83;;;22.10;62.30;;;;;;5072332;28;20440;-84
2023/12/13 00:33:17;;;;;;;2.40;0.90;;;22.10;62.30;;;;;;5072120;28;20492;-84
2023/12/13 00:35:44;;;;;;;1.23;0.90;;;22.10;62.30;;;;;;5072123;28;20432;-84
2023/12/13 00:38:12;;;;;;;1.87;0.90;;;22.00;62.20;;;;;;5072069;28;20436;-84
2023/12/13 00:40:39;;;;;;;1.20;1.07;;;22.00;62.20;;;;;;5072230;28;20515;-84
2023/12/13 00:43:06;;;;;;;1.10;0.80;;;22.00;62.20;;;;;;5072275;28;20446;-84
2023/12/13 00:45:33;;;;;;;1.40;1.00;;;22.00;63.10;;;;;;5074979;28;20436;-84
2023/12/13 00:47:59;;;;;;;1.40;0.90;;;22.00;62.30;;;;;;5075668;28;20447;-84
2023/12/13 00:50:26;;;;;;;1.30;0.90;;;22.00;62.30;;;;;;5075576;28;20439;-84
2023/12/13 00:52:52;;;;;;;1.10;0.90;;;22.00;62.50;;;;;;5075556;28;20484;-84
2023/12/13 00:55:20;;;;;;;1.50;0.80;;;22.00;62.30;;;;;;5075522;28;20954;-84
2023/12/13 00:57:47;;;;;;;1.00;0.70;;;22.00;62.30;;;;;;5075501;28;20197;-84
2023/12/13 01:00:14;;;;;;;1.60;0.97;;;22.00;62.30;;;;;;5075338;28;20452;-84
2023/12/13 01:02:41;;;;;;;1.20;0.80;;;22.00;62.30;;;;;;5075418;28;20911;-84
2023/12/13 01:05:09;;;;;;;1.33;0.97;;;21.90;62.20;;;;;;5075442;28;20432;-84
2023/12/13 01:07:35;;;;;;;1.23;1.00;;;22.00;62.30;;;;;;5075403;28;20794;-84
2023/12/13 01:10:02;;;;;;;1.00;0.73;;;21.90;62.20;;;;;;5075299;28;20911;-84
2023/12/13 01:12:30;;;;;;;1.20;0.97;;;21.90;62.30;;;;;;5075140;28;20820;-84
2023/12/13 01:14:57;;;;;;;1.50;0.80;;;21.90;62.30;;;;;;5075041;28;20441;-84
2023/12/13 01:17:24;;;;;;;1.10;0.80;;;21.90;62.30;;;;;;5075188;28;20437;-84
2023/12/13 01:19:52;;;;;;;1.20;0.90;;;21.90;62.30;;;;;;5074929;28;20824;-84
2023/12/13 01:22:19;;;;;;;1.00;0.70;;;21.90;63.20;;;;;;5074933;28;20444;-84
2023/12/13 01:24:45;;;;;;;1.20;1.00;;;21.90;62.30;;;;;;5074919;28;20444;-84
2023/12/13 01:27:12;;;;;;;1.37;1.00;;;21.90;62.40;;;;;;5074995;28;20441;-84
2023/12/13 01:29:40;;;;;;;1.40;0.80;;;21.90;62.30;;;;;;5074877;28;20464;-84
2023/12/13 01:32:07;;;;;;;1.00;0.80;;;21.90;62.40;;;;;;5074792;28;20919;-84
2023/12/13 01:34:34;;;;;;;1.30;1.00;;;21.90;62.30;;;;;;5074643;28;20440;-84
2023/12/13 01:37:01;;;;;;;1.13;0.87;;;21.90;62.40;;;;;;5074823;28;20455;-84
2023/12/13 01:39:28;;;;;;;1.20;0.90;;;21.90;62.50;;;;;;5074669;28;20440;-84
2023/12/13 01:41:55;;;;;;;1.10;1.00;;;21.90;62.50;;;;;;5074684;28;20447;-84
2023/12/13 01:44:21;;;;;;;1.10;0.80;;;21.90;62.40;;;;;;5074572;28;20520;-84
2023/12/13 01:46:50;;;;;;;1.23;0.90;;;21.90;62.40;;;;;;5074603;28;20499;-84
2023/12/13 01:49:18;;;;;;;1.83;0.93;;;21.90;62.50;;;;;;5074553;28;21362;-84
2023/12/13 01:51:45;;;;;;;1.43;0.80;;;21.90;62.40;;;;;;5074335;28;20916;-84
2023/12/13 01:54:15;;;;;;;2.03;0.90;;;21.90;63.30;;;;;;5074334;28;20488;-84
2023/12/13 01:56:44;;;;;;;1.30;0.90;;;21.90;62.40;;;;;;5074100;28;20938;-84
2023/12/13 01:59:12;;;;;;;1.10;0.80;;;21.90;62.30;;;;;;5074333;28;20453;-84
2023/12/13 02:01:39;;;;;;;1.10;0.83;;;21.90;62.40;;;;;;5073959;28;20440;-84
2023/12/13 02:04:07;;;;;;;1.20;0.80;;;21.90;62.30;;;;;;5074116;28;20451;-84
2023/12/13 02:06:34;;;;;;;1.10;0.87;;;21.90;62.30;;;;;;5074139;28;20439;-84
2023/12/13 02:09:01;;;;;;;1.00;0.70;;;21.90;62.30;;;;;;5074089;28;20946;-84
2023/12/13 02:11:28;;;;;;;1.10;0.90;;;21.90;62.30;;;;;;5074148;28;20519;-84
2023/12/13 02:13:55;;;;;;;1.10;0.87;;;21.90;62.30;;;;;;5073864;28;20494;-84
2023/12/13 02:16:22;;;;;;;1.07;0.90;;;21.90;62.20;;;;;;5073933;28;20425;-84
2023/12/13 02:18:48;;;;;;;1.20;0.80;;;22.00;62.30;;;;;;5073709;28;20475;-84
2023/12/13 02:21:16;;;;;;;1.40;0.90;;;22.00;62.30;;;;;;5073832;28;20432;-84
2023/12/13 02:23:46;;;;;;;1.10;0.80;;;22.00;62.30;;;;;;5073878;28;20442;-84
2023/12/13 02:26:13;;;;;;;1.00;0.70;;;22.00;62.30;;;;;;5073788;28;20435;-84
2023/12/13 02:28:41;;;;;;;1.20;0.80;;;22.00;62.30;;;;;;5073718;28;20975;-84
2023/12/13 02:31:10;;;;;;;1.50;0.73;;;22.00;62.30;;;;;;5073737;28;20439;-84
2023/12/13 02:33:40;;;;;;;1.00;0.77;;;22.00;62.20;;;;;;5073493;28;20988;-84
2023/12/13 02:36:08;;;;;;;1.20;0.90;;;22.00;62.20;;;;;;5073584;28;20444;-84
2023/12/13 02:38:35;;;;;;;1.10;0.73;;;22.00;62.20;;;;;;5073535;28;20454;-84
2023/12/13 02:41:03;;;;;;;1.10;0.90;;;22.00;62.20;;;;;;5073480;28;20444;-84
2023/12/13 02:43:30;;;;;;;1.10;0.80;;;22.00;62.10;;;;;;5073352;28;20498;-85
2023/12/13 02:45:57;;;;;;;1.10;0.97;;;22.00;62.10;;;;;;5073457;28;20440;-84
2023/12/13 02:48:24;;;;;;;1.17;0.70;;;22.00;62.10;;;;;;5073405;28;20443;-84
2023/12/13 02:50:52;;;;;;;1.00;0.80;;;22.00;62.10;;;;;;5073205;28;20440;-84
2023/12/13 02:53:19;;;;;;;1.00;0.70;;;22.00;62.10;;;;;;5073220;28;20487;-84
2023/12/13 02:55:46;;;;;;;1.47;0.80;;;22.00;62.00;;;;;;5073173;28;20489;-84
2023/12/13 02:58:15;;;;;;;1.10;0.90;;;22.00;62.10;;;;;;5073294;28;20443;-84
2023/12/13 03:00:41;;;;;;;1.10;0.90;;;22.00;62.00;;;;;;5073240;28;20437;-84
2023/12/13 03:03:09;;;;;;;1.00;0.80;;;22.00;62.00;;;;;;5073189;28;20432;-84
2023/12/13 03:05:35;;;;;;;1.10;0.80;;;22.00;62.00;;;;;;5073264;28;20436;-84
2023/12/13 03:08:02;;;;;;;1.40;0.80;;;22.00;62.00;;;;;;5072335;28;20435;-84
2023/12/13 03:10:29;;;;;;;1.20;0.80;;;22.00;62.00;;;;;;5073157;28;20436;-85
2023/12/13 03:12:56;;;;;;;1.20;0.87;;;22.00;62.00;;;;;;5073014;28;20472;-85
2023/12/13 03:15:24;;;;;;;1.47;0.70;;;22.00;62.00;;;;;;5072930;28;20483;-84
2023/12/13 03:17:50;;;;;;;1.20;1.00;;;22.00;62.00;;;;;;5072704;28;20444;-84
2023/12/13 03:20:17;;;;;;;1.03;0.73;;;22.00;62.00;;;;;;5073007;28;20436;-84
2023/12/13 03:22:44;;;;;;;1.00;0.80;;;22.00;62.00;;;;;;5073118;28;20436;-84
2023/12/13 03:25:11;;;;;;;1.10;0.80;;;22.00;62.00;;;;;;5073001;28;20459;-84
2023/12/13 03:27:42;;;;;;;1.33;1.00;;;22.00;62.00;;;;;;5072967;28;20436;-84
2023/12/13 03:30:10;;;;;;;1.20;0.80;;;22.00;62.00;;;;;;5072780;28;20460;-84
2023/12/13 03:32:38;;;;;;;1.10;0.90;;;22.00;62.10;;;;;;5072819;28;20440;-84
2023/12/13 03:35:06;;;;;;;1.10;0.80;;;22.00;62.00;;;;;;5072631;28;20924;-84
2023/12/13 03:37:34;;;;;;;1.00;0.70;;;22.00;62.00;;;;;;5072769;28;20443;-84
2023/12/13 03:40:01;;;;;;;1.00;0.80;;;22.00;62.00;;;;;;5072932;28;20441;-84
2023/12/13 03:42:28;;;;;;;1.03;0.80;;;22.00;62.00;;;;;;5072756;28;20436;-84
2023/12/13 03:44:56;;;;;;;1.00;0.70;;;22.00;62.00;;;;;;5072738;28;20440;-84
2023/12/13 03:47:22;;;;;;;1.40;0.90;;;22.00;62.00;;;;;;5072753;28;20437;-88
2023/12/13 03:49:50;;;;;;;1.30;0.77;;;22.10;62.00;;;;;;5072722;28;20440;-88
2023/12/13 03:52:17;;;;;;;1.10;0.77;;;22.00;62.00;;;;;;5072680;28;20928;-88
2023/12/13 03:54:44;;;;;;;1.07;0.77;;;22.00;62.00;;;;;;5072464;28;20495;-85
2023/12/13 03:57:11;;;;;;;1.00;0.70;;;22.00;61.90;;;;;;5072677;28;20433;-88
2023/12/13 03:59:37;;;;;;;1.00;0.70;;;22.00;61.90;;;;;;5072541;28;20486;-85
2023/12/13 04:02:04;;;;;;;1.10;0.80;;;22.00;62.00;;;;;;5072763;28;20532;-85
2023/12/13 04:04:31;;;;;;;1.00;0.80;;;22.00;61.90;;;;;;5072569;28;20440;-88
2023/12/13 04:06:59;;;;;;;1.20;0.80;;;22.00;61.90;;;;;;5072581;28;20437;-85
2023/12/13 04:09:26;;;;;;;1.00;0.70;;;22.00;61.90;;;;;;5072577;28;20441;-84
2023/12/13 04:11:53;;;;;;;1.30;0.93;;;22.00;61.90;;;;;;5072490;28;20432;-88
2023/12/13 04:14:20;;;;;;;1.07;0.70;;;22.00;61.90;;;;;;5072234;28;20484;-85
2023/12/13 04:16:46;;;;;;;1.10;0.70;;;22.00;61.90;;;;;;5072605;28;20438;-85
2023/12/13 04:19:13;;;;;;;1.27;0.70;;;22.10;61.90;;;;;;5074717;28;20472;-86
2023/12/13 04:21:40;;;;;;;1.00;0.80;;;22.00;61.90;;;;;;5076138;28;20436;-87
2023/12/13 04:24:08;;;;;;;1.10;0.70;;;22.00;61.90;;;;;;5076047;28;20443;-87
2023/12/13 04:26:35;;;;;;;1.50;0.80;;;22.00;62.00;;;;;;5076138;28;20443;-87
2023/12/13 04:29:02;;;;;;;1.60;0.90;;;22.00;62.00;;;;;;5076010;28;20460;-87
2023/12/13 04:31:29;;;;;;;2.47;0.80;;;22.00;62.00;;;;;;5075592;28;20439;-86
2023/12/13 04:33:56;;;;;;;1.00;0.80;;;22.00;62.00;;;;;;5075760;28;20492;-85
2023/12/13 04:36:22;;;;;;;1.20;0.90;;;22.10;62.00;;;;;;5075928;28;20809;-85
2023/12/13 04:38:49;;;;;;;1.10;0.80;;;22.00;61.90;;;;;;5075895;28;20459;-86
2023/12/13 04:41:17;;;;;;;1.00;0.70;;;22.00;61.90;;;;;;5075811;28;20448;-84
2023/12/13 04:43:44;;;;;;;1.30;0.80;;;22.00;61.90;;;;;;5075811;28;20436;-84
2023/12/13 04:46:11;;;;;;;1.00;0.80;;;22.00;61.90;;;;;;5075767;28;20447;-88
2023/12/13 04:48:38;;;;;;;1.43;0.80;;;22.00;61.90;;;;;;5075704;28;20454;-87
2023/12/13 04:51:05;;;;;;;1.30;0.80;;;22.00;61.90;;;;;;5075657;28;20527;-88
2023/12/13 04:53:32;;;;;;;1.30;0.80;;;22.00;61.90;;;;;;5075489;28;20483;-87
2023/12/13 04:55:58;;;;;;;1.10;0.77;;;22.00;61.90;;;;;;5075523;28;20440;-87
2023/12/13 04:58:27;;;;;;;1.30;1.00;;;22.10;62.00;;;;;;5075469;28;20474;-85
2023/12/13 05:00:53;;;;;;;1.17;0.80;;;22.00;61.90;;;;;;5070812;28;20426;-83
2023/12/13 05:03:20;;;;;;;1.30;0.80;;;22.00;61.90;;;;;;5055499;28;20491;-84
2023/12/13 05:05:47;;;;;;;1.17;0.80;;;22.00;61.90;;;;;;5064993;28;20428;-84
2023/12/13 05:08:14;;;;;;;1.10;0.90;;;22.10;61.90;;;;;;5075577;28;20527;-84
2023/12/13 05:10:43;;;;;;;1.00;0.70;;;22.10;61.90;;;;;;5075289;28;21002;-83
2023/12/13 05:13:10;;;;;;;1.00;0.63;;;22.10;61.90;;;;;;5075271;28;20444;-85
2023/12/13 05:15:38;;;;;;;1.10;0.90;;;22.10;61.90;;;;;;5075418;28;20437;-84
2023/12/13 05:18:05;;;;;;;1.13;0.80;;;22.10;61.90;;;;;;5075427;28;20837;-85
2023/12/13 05:20:32;;;;;;;1.20;0.77;;;22.10;61.90;;;;;;5075575;28;20416;-85
2023/12/13 05:22:58;;;;;;;1.30;0.70;;;22.10;61.80;;;;;;5075356;28;20442;-84
2023/12/13 05:25:26;;;;;;;1.00;0.90;;;22.10;61.80;;;;;;5075050;28;20446;-84
2023/12/13 05:27:52;;;;;;;1.30;0.80;;;22.10;61.70;;;;;;5067312;28;20433;-87
2023/12/13 05:30:19;;;;;;;1.00;0.70;;;22.10;61.70;;;;;;5054157;28;20440;-84
2023/12/13 05:32:49;;;;;;;1.00;0.70;;;22.10;61.70;;;;;;5055277;28;20503;-85
2023/12/13 05:35:16;;;;;;;1.10;0.80;;;22.10;61.60;;;;;;5055785;28;21008;-85
2023/12/13 05:37:43;;;;;;;1.00;0.80;;;22.10;61.70;;;;;;5055311;28;20812;-87
2023/12/13 05:40:11;;;;;;;1.20;1.00;;;22.20;61.70;;;;;;5054812;28;20449;-85
2023/12/13 05:42:37;;;;;;;1.10;0.70;;;22.20;61.70;;;;;;5055014;28;20812;-84
2023/12/13 05:45:05;;;;;;;1.20;1.00;;;22.20;61.70;;;;;;5054724;28;20937;-84
2023/12/13 05:47:32;;;;;;;1.20;0.80;;;22.20;61.60;;;;;;5054671;28;20796;-84
2023/12/13 05:50:00;;;;;;;1.40;0.90;;;22.20;61.60;;;;;;5054793;28;20433;-85
2023/12/13 05:52:27;;;;;;;1.10;0.90;;;22.20;61.60;;;;;;5054423;28;20441;-84
2023/12/13 05:54:54;;;;;;;1.30;0.80;;;22.20;61.60;;;;;;5054472;28;20992;-86
2023/12/13 05:57:21;;;;;;;1.10;0.80;;;22.20;61.60;;;;;;5054571;28;20444;-84
2023/12/13 05:59:47;;;;;;;1.10;0.80;;;22.20;61.70;;;;;;5054285;28;20552;-84
2023/12/13 06:02:14;;;;;;;1.00;0.70;;;22.20;61.70;;;;;;5054262;28;20437;-84
2023/12/13 06:04:42;;;;;;;1.03;0.70;;;22.20;61.60;;;;;;5054351;28;20464;-85
2023/12/13 06:07:11;;;;;;;1.10;0.80;;;22.20;61.60;;;;;;5054567;28;20438;-84
2023/12/13 06:09:37;;;;;;;1.00;0.70;;;22.20;61.70;;;;;;5054380;28;20445;-87
2023/12/13 06:12:05;;;;;;;1.10;0.80;;;22.20;61.60;;;;;;5054125;28;20437;-88
2023/12/13 06:14:31;;;;;;;0.97;0.70;;;22.20;61.60;;;;;;5054099;28;20489;-88
2023/12/13 06:16:58;;;;;;;1.13;0.60;;;22.20;61.60;;;;;;5054136;28;20452;-84
2023/12/13 06:19:27;;;;;;;1.10;0.80;;;22.30;61.70;;;;;;5053928;28;21011;-84
2023/12/13 06:21:53;;;;;;;1.10;0.77;;;22.20;61.50;;;;;;5058830;28;20448;-87
2023/12/13 06:24:22;;;;;;;1.00;0.80;;;22.20;61.50;;;;;;5059206;28;20448;-85
2023/12/13 06:26:50;;;;;;;1.20;0.80;;;22.20;61.50;;;;;;5054932;28;20445;-85
2023/12/13 06:29:19;;;;;;;1.07;0.87;;;22.20;61.50;;;;;;5062889;28;21023;-83
2023/12/13 06:31:46;;;;;;;1.00;0.80;;;22.30;61.60;;;;;;5053469;28;20452;-83
2023/12/13 06:34:13;;;;;;;1.47;0.70;;;22.30;61.60;;;;;;5055912;28;21064;-85
2023/12/13 06:36:40;;;;;;;1.10;0.80;;;22.20;61.40;;;;;;5072620;28;20440;-84
2023/12/13 06:39:11;;;;;;;1.00;0.70;;;22.30;61.50;;;;;;5073545;28;20523;-84
2023/12/13 06:41:39;;;;;;;1.10;0.80;;;22.30;61.50;;;;;;5073554;28;20441;-84
2023/12/13 06:44:06;;;;;;;1.17;0.80;;;22.30;61.40;;;;;;5073509;28;20919;-84
2023/12/13 06:46:33;;;;;;;1.00;0.80;;;22.30;61.40;;;;;;5073557;28;20444;-84
2023/12/13 06:49:00;;;;;;;1.00;0.80;;;22.30;61.50;;;;;;5073433;28;20435;-86
2023/12/13 06:51:27;;;;;;;1.20;0.70;;;22.40;61.50;;;;;;5073190;28;20451;-87
2023/12/13 06:53:54;;;;;;;1.07;0.77;;;22.30;61.40;;;;;;5073279;28;20476;-84
2023/12/13 06:56:21;;;;;;;1.00;0.70;;;22.30;61.40;;;;;;5073411;28;20900;-85
2023/12/13 06:58:49;;;;;;;1.00;0.60;;;22.40;61.50;;;;;;5073221;28;20457;-84
2023/12/13 07:01:16;;;;;;;2.90;1.10;;;22.40;61.50;;;;;;5073769;28;20468;-84
2023/12/13 07:03:43;;;;;;;1.00;0.70;;;22.30;61.30;;;;;;5073311;28;20440;-85
2023/12/13 07:06:10;;;;;;;1.20;0.70;;;22.30;61.40;;;;;;5073476;28;20452;-88
2023/12/13 07:08:36;;;;;;;1.50;0.73;;;22.30;61.30;;;;;;5073588;28;20842;-87
2023/12/13 07:11:04;;;;;;;1.30;0.80;;;22.30;61.30;;;;;;5073383;28;20919;-84
2023/12/13 07:13:31;;;;;;;1.10;0.70;;;22.30;61.40;;;;;;5073495;28;20440;-84
2023/12/13 07:15:59;;;;;;;4.00;0.77;;;22.40;61.40;;;;;;5071843;28;20541;-85
2023/12/13 07:18:26;;;;;;;1.03;0.77;;;22.40;61.40;;;;;;5072552;28;20469;-87
2023/12/13 07:20:53;;;;;;;1.00;0.60;;;22.40;61.40;;;;;;5072755;28;21174;-84
2023/12/13 07:23:20;;;;;;;1.20;0.70;;;22.40;61.60;;;;;;5073203;28;20443;-84
2023/12/13 07:25:47;;;;;;;1.10;0.80;;;22.40;61.70;;;;;;5073102;28;20444;-85
2023/12/13 07:28:14;;;;;;;1.80;0.90;;;22.40;61.70;;;;;;5073154;28;20573;-83
2023/12/13 07:30:41;;;;;;;1.10;0.70;;;22.40;61.70;;;;;;5072877;28;20436;-87
2023/12/13 07:33:09;;;;;;;1.10;0.73;;;22.40;61.80;;;;;;5072869;28;20440;-84
2023/12/13 07:35:36;;;;;;;1.00;0.60;;;22.40;62.00;;;;;;5072853;28;20492;-86
2023/12/13 07:38:04;;;;;;;1.10;0.83;;;22.40;61.90;;;;;;5072633;28;20451;-84
2023/12/13 07:40:31;;;;;;;1.20;0.83;;;22.40;61.90;;;;;;5072425;28;20432;-86
2023/12/13 07:42:58;;;;;;;1.60;0.83;;;22.40;61.00;;;;;;5072504;28;20436;-84
2023/12/13 07:45:24;;;;;;;1.60;0.70;;;22.40;60.80;;;;;;5072631;28;20447;-84
2023/12/13 07:47:51;;;;;;;1.10;0.80;;;22.40;60.80;;;;;;5072507;28;21181;-86
2023/12/13 07:50:19;;;;;;;2.50;0.80;;;22.50;60.90;;;;;;5072589;28;20433;-88
2023/12/13 07:52:46;;;;;;;1.53;1.00;;;22.40;60.70;;;;;;5073260;28;20911;-88
2023/12/13 07:55:18;;;;;;;2.03;0.80;;;22.50;60.90;;;;;;5080603;28;20484;-88
2023/12/13 07:57:44;;;;;;;1.20;0.70;;;22.40;60.80;;;;;;5077210;28;20424;-93
2023/12/13 08:00:12;;;;;;;1.17;0.90;;;22.40;61.70;;;;;;5077327;28;20490;-92
2023/12/13 08:02:39;;;;;;;1.10;0.90;;;22.40;62.20;;;;;;5077403;28;20432;-93
2023/12/13 08:05:06;;;;;;;3.10;0.90;;;22.40;62.30;;;;;;5074387;28;20448;-84
2023/12/13 08:07:35;;;;;;;2.60;1.00;;;22.40;61.60;;;;;;5062396;28;20444;-84
2023/12/13 08:10:06;;;;;;;1.67;1.00;;;22.30;60.90;;;;;;5056435;28;20519;-84
2023/12/13 08:12:33;;;;;;;1.20;0.83;;;22.30;60.80;;;;;;5056406;28;20473;-84
2023/12/13 08:15:00;;;;;;;1.30;0.83;;;22.30;60.90;;;;;;5056614;28;20568;-83
2023/12/13 08:17:27;;;;;;;8.60;1.70;;;22.30;60.90;;;;;;5056504;28;20440;-83
2023/12/13 08:19:55;;;;;;;3.80;1.50;;;22.40;61.10;;;;;;5056559;28;20555;-84
2023/12/13 08:22:21;;;;;;;1.73;1.30;;;22.30;61.00;;;;;;5056643;28;20437;-85
2023/12/13 08:24:49;;;;;;;3.50;1.23;;;22.20;61.50;;;;;;5056535;28;20430;-85
2023/12/13 08:27:16;;;;;;;1.80;1.10;;;22.20;62.10;;;;;;5056105;28;20443;-83
2023/12/13 08:29:43;;;;;;;2.10;1.17;;;22.20;62.10;;;;;;5056540;28;20461;-84
2023/12/13 08:32:10;;;;;;;3.80;1.93;;;22.20;62.00;;;;;;5056301;28;20877;-83
2023/12/13 08:34:37;;;;;;;1.63;1.33;;;22.20;62.30;;;;;;5056252;28;20571;-84
2023/12/13 08:37:04;;;;;;;1.30;1.10;;;22.20;62.00;;;;;;5056447;28;20437;-84
2023/12/13 08:39:30;;;;;;;1.30;1.00;;;22.30;61.90;;;;;;5056116;28;20438;-84
2023/12/13 08:41:58;;;;;;;3.77;1.60;;;22.30;61.90;;;;;;5056290;28;20958;-85
2023/12/13 08:44:24;;;;;;;4.23;1.47;;;22.30;62.70;;;;;;5056101;28;20441;-84
2023/12/13 08:46:51;;;;;;;1.90;1.10;;;22.30;61.70;;;;;;5056215;28;20920;-84
2023/12/13 08:49:19;;;;;;;3.00;1.20;;;22.30;61.80;;;;;;5056026;28;20444;-86
2023/12/13 08:51:46;;;;;;;3.20;1.50;;;22.30;61.70;;;;;;5055800;28;20503;-84
2023/12/13 08:54:13;;;;;;;2.37;1.20;;;22.50;61.80;;;;;;5055987;28;20448;-86
2023/12/13 08:56:40;;;;;;;1.53;1.00;;;22.40;61.60;;;;;;5055900;28;20437;-84
2023/12/13 08:59:08;;;;;;;2.33;1.20;;;22.40;61.70;;;;;;5055826;28;20484;-84
2023/12/13 09:01:35;;;;;;;1.27;1.13;;;22.40;61.80;;;;;;5055864;28;20437;-84
2023/12/13 09:04:02;;;;;;;1.67;1.40;;;22.40;61.90;;;;;;5055524;28;20438;-84
2023/12/13 09:06:29;;;;;;;5.80;1.60;;;22.40;61.90;;;;;;5055016;28;20441;-85
2023/12/13 09:08:57;;;;;;;2.07;1.20;;;22.40;61.90;;;;;;5055721;28;20440;-91
2023/12/13 09:11:23;;;;;;;5.60;1.70;;;22.40;61.90;;;;;;5056146;28;20437;-90
2023/12/13 09:13:50;;;;;;;3.60;1.33;;;22.40;61.10;;;;;;5055862;28;20524;-91
2023/12/13 09:16:19;;;;;;;2.50;1.47;;;22.40;60.70;;;;;;5057396;28;20576;-82
2023/12/13 09:18:46;;;;;;;2.10;1.30;;;22.30;61.20;;;;;;5075792;28;20901;-82
2023/12/13 09:21:14;;;;;;;1.83;1.37;;;22.30;61.50;;;;;;5075676;28;20531;-82
2023/12/13 09:23:40;;;;;;;2.90;1.07;;;22.30;61.90;;;;;;5075768;28;20834;-82
2023/12/13 09:26:07;;;;;;;2.17;1.43;;;22.30;61.90;;;;;;5075717;28;20441;-83
2023/12/13 09:28:35;;;;;;;3.73;1.30;;;22.30;61.90;;;;;;5076717;28;20535;-86
2023/12/13 09:31:05;;;;;;;4.30;2.17;;;22.30;61.40;;;;;;5079170;28;20515;-86
2023/12/13 09:33:34;;;;;;;2.93;1.40;;;22.30;60.90;;;;;;5075256;28;20479;-83
2023/12/13 09:36:00;;;;;;;8.40;2.07;;;22.30;61.10;;;;;;5075443;28;20495;-83
2023/12/13 09:38:29;;;;;;;4.23;1.40;;;22.30;61.70;;;;;;5075214;28;20468;-82
2023/12/13 09:40:56;;;;;;;2.57;1.50;;;22.30;61.90;;;;;;5075238;28;20445;-86
2023/12/13 09:43:25;;;;;;;1.33;1.00;;;22.30;61.80;;;;;;5075284;28;20437;-87
2023/12/13 09:45:55;;;;;;;3.50;1.80;;;22.30;61.80;;;;;;5075794;28;20446;-83
2023/12/13 09:48:24;;;;;;;4.40;1.70;;;22.40;61.80;;;;;;5075471;28;20946;-83
2023/12/13 09:50:54;;;;;;;2.23;1.23;;;22.40;61.90;;;;;;5075973;28;20441;-83
2023/12/13 09:53:22;;;;;;;3.30;1.57;;;22.40;61.40;;;;;;5075299;28;20432;-82
2023/12/13 09:55:49;;;;;;;3.00;1.53;;;22.50;61.90;;;;;;5076788;28;20838;-82
2023/12/13 09:58:16;;;;;;;8.77;1.60;;;22.50;61.90;;;;;;5076337;28;20990;-82
2023/12/13 10:00:44;;;;;;;1.93;1.03;;;22.40;61.70;;;;;;5076650;28;20510;-82
2023/12/13 10:03:11;;;;;;;7.83;1.33;;;22.50;61.90;;;;;;5061560;28;20928;-83
2023/12/13 10:05:40;;;;;;;1.63;1.53;;;22.50;61.50;;;;;;5058610;28;20448;-84
2023/12/13 10:08:11;;;;;;;1.80;1.07;;;22.60;61.80;;;;;;5059623;28;20433;-86
2023/12/13 10:10:39;;;;;;;1.40;1.00;;;22.60;61.90;;;;;;5058992;28;20483;-83
2023/12/13 10:13:09;;;;;;;4.87;1.60;;;22.60;61.80;;;;;;5059996;28;20497;-84
2023/12/13 10:15:37;;;;;;;2.47;1.60;;;22.70;61.80;;;;;;5058222;28;20489;-83
2023/12/13 10:18:04;;;;;;;3.80;1.47;;;22.80;61.90;;;;;;5057929;28;20465;-83
2023/12/13 10:20:32;;;;;;;2.87;1.50;;;22.80;62.60;;;;;;5057556;28;20434;-83
2023/12/13 10:22:59;;;;;;;1.43;1.20;;;22.80;61.50;;;;;;5057202;28;20491;-82
2023/12/13 10:25:28;;;;;;;7.47;2.40;;;22.90;61.40;;;;;;5056549;28;20438;-83
2023/12/13 10:27:55;;;;;;;7.90;2.33;;;22.90;61.60;;;;;;5055843;28;20461;-83
2023/12/13 10:30:22;;;;;;;7.10;3.10;;;22.80;61.60;;;;;;5056122;28;20433;-85
2023/12/13 10:32:50;;;;;;;20.77;3.40;;;22.80;61.90;;;;;;5051799;28;20441;-84
2023/12/13 10:35:17;;;;;;;8.93;3.70;;;22.90;61.90;;;;;;5052411;28;20481;-87
2023/12/13 10:37:47;;;;;;;9.23;3.80;;;22.90;61.80;;;;;;5053840;28;20435;-84
2023/12/13 10:40:15;;;;;;;10.57;4.13;;;22.90;61.80;;;;;;5053695;28;20929;-84
2023/12/13 10:42:46;;;;;;;15.00;5.10;;;22.90;62.20;;;;;;5054100;28;20627;-84
2023/12/13 10:45:13;;;;;;;13.10;5.90;;;22.90;62.30;;;;;;5054045;28;20445;-84
2023/12/13 10:47:44;;;;;;;16.67;5.57;;;22.90;62.50;;;;;;5053848;28;20959;-87
2023/12/13 10:50:11;;;;;;;15.50;5.73;;;22.90;62.70;;;;;;5053772;28;20433;-84
2023/12/13 10:52:39;;;;;;;14.37;7.53;;;22.90;63.20;;;;;;5053627;28;20445;-84
2023/12/13 10:55:07;;;;;;;16.23;5.93;;;23.00;63.20;;;;;;5053505;28;20933;-84
2023/12/13 10:57:34;;;;;;;18.17;6.27;;;22.90;63.20;;;;;;5053490;28;20511;-88
2023/12/13 11:00:04;;;;;;;16.30;6.13;;;23.00;63.30;;;;;;5053781;28;20429;-84
2023/12/13 11:02:38;;;;;;;11.83;5.30;;;23.00;63.30;;;;;;5053734;28;20457;-84
2023/12/13 11:05:06;;;;;;;10.37;4.80;;;23.00;63.10;;;;;;5053375;28;20915;-87
2023/12/13 11:07:43;;;;;;;16.20;6.27;;;23.00;63.20;;;;;;5053440;28;20437;-84
2023/12/13 11:10:12;;;;;;;12.23;5.60;;;23.00;63.20;;;;;;5053400;28;20472;-86
2023/12/13 11:12:46;;;;;;;10.70;3.93;;;23.10;63.20;;;;;;5053035;28;20437;-88
2023/12/13 11:15:16;;;;;;;11.67;4.70;;;23.00;62.80;;;;;;5053587;28;20437;-87
2023/12/13 11:17:45;;;;;;;3.57;2.47;;;23.00;62.80;;;;;;5053184;28;20441;-84
2023/12/13 11:20:14;;;;;;;8.73;4.10;;;23.00;62.50;;;;;;5053422;28;20476;-86
2023/12/13 11:22:45;;;;;;;7.87;3.83;;;23.00;63.40;;;;;;5053556;28;20439;-87
2023/12/13 11:25:12;;;;;;;7.87;3.73;;;23.00;62.90;;;;;;5053353;28;20437;-86
2023/12/13 11:27:47;;;;;;;11.63;4.43;;;23.00;63.40;;;;;;5052405;28;20453;-85
2023/12/13 11:30:17;;;;;;;14.83;4.10;;;23.00;63.60;;;;;;5052451;28;20516;-85
2023/12/13 11:32:45;;;;;;;9.27;3.70;;;23.00;63.30;;;;;;5053305;28;20496;-86
2023/12/13 11:35:15;;;;;;;8.50;4.00;;;23.00;63.20;;;;;;5053211;28;20447;-88
2023/12/13 11:37:43;;;;;;;13.53;4.57;;;23.00;63.90;;;;;;5053285;28;20433;-86
2023/12/13 11:40:10;;;;;;;12.63;4.60;;;23.00;63.60;;;;;;5053111;28;20438;-85
2023/12/13 11:42:37;;;;;;;9.03;3.50;;;23.00;63.70;;;;;;5052981;28;20524;-87
2023/12/13 11:45:04;;;;;;;7.63;4.10;;;23.00;63.50;;;;;;5053223;28;20437;-84
2023/12/13 11:47:32;;;;;;;11.87;3.97;;;23.00;63.50;;;;;;5053053;28;20425;-84
2023/12/13 11:49:59;;;;;;;8.20;3.97;;;23.00;63.50;;;;;;5053079;28;20448;-84
2023/12/13 11:52:26;;;;;;;9.67;4.23;;;23.00;63.60;;;;;;5052660;28;20433;-84
2023/12/13 11:54:56;;;;;;;7.40;3.23;;;23.00;63.50;;;;;;5052921;28;20945;-84
2023/12/13 11:57:23;;;;;;;9.67;3.73;;;23.10;63.50;;;;;;5052320;28;20481;-84
2023/12/13 11:59:50;;;;;;;7.67;3.70;;;23.00;63.40;;;;;;5062208;28;20421;-84
2023/12/13 12:02:19;;;;;;;13.53;3.63;;;23.00;63.40;;;;;;5072525;28;20436;-83
2023/12/13 12:04:49;;;;;;;6.20;3.10;;;23.00;63.30;;;;;;5071698;28;20539;-83
2023/12/13 12:07:17;;;;;;;7.57;3.40;;;23.00;63.30;;;;;;5071861;28;20441;-83
2023/12/13 12:09:47;;;;;;;12.23;4.13;;;23.00;63.40;;;;;;5072568;28;21079;-84
2023/12/13 12:12:15;;;;;;;6.60;3.30;;;23.10;63.60;;;;;;5072451;28;20447;-84
2023/12/13 12:14:43;;;;;;;5.93;2.73;;;23.00;63.40;;;;;;5072479;28;20436;-90
2023/12/13 12:17:11;;;;;;;8.20;2.57;;;23.00;63.40;;;;;;5071439;28;21041;-84
2023/12/13 12:19:39;;;;;;;6.90;2.57;;;23.00;63.30;;;;;;5070820;28;20487;-84
2023/12/13 12:22:07;;;;;;;4.90;2.57;;;23.00;63.30;;;;;;5071645;28;20832;-84
2023/12/13 12:24:36;;;;;;;11.07;3.47;;;23.00;63.20;;;;;;5074116;28;20443;-84
2023/12/13 12:27:10;;;;;;;6.30;3.17;;;23.00;63.20;;;;;;5071534;28;20505;-85
2023/12/13 12:29:37;;;;;;;6.90;3.27;;;23.00;63.10;;;;;;5071441;28;20444;-84
2023/12/13 12:32:08;;;;;;;4.97;2.37;;;22.90;63.30;;;;;;5071676;28;20441;-84
2023/12/13 12:34:36;;;;;;;5.20;2.87;;;22.90;63.10;;;;;;5071743;28;20793;-85
2023/12/13 12:37:03;;;;;;;7.60;3.27;;;22.90;63.10;;;;;;5075605;28;20523;-88
2023/12/13 12:39:31;;;;;;;6.07;2.37;;;22.90;63.10;;;;;;5084181;28;20447;-85
2023/12/13 12:41:58;;;;;;;3.80;2.47;;;22.90;63.10;;;;;;5075338;28;20446;-85
2023/12/13 12:44:25;;;;;;;14.27;2.90;;;22.90;62.90;;;;;;5075336;28;20440;-86
2023/12/13 12:46:52;;;;;;;7.17;2.40;;;22.90;63.20;;;;;;5075968;28;20448;-83